Terminal Aerodrome Forecast
Issued by NWS Pocatello, ID

Home | Current Version | Previous Version | Text Only | Print | Product List | Glossary On
Versions: 1 2 3 4 5 6 7 8 9 10 11 12 13 14
000
FTUS45 KPIH 271400 AAA
TAFPIH
TAF AMD
KPIH 271400Z 2714/2812 VRB05KT P6SM VCSH BKN020 OVC040
      TEMPO 2714/2716 3SM -SN
     FM271700 VRB05KT P6SM VCSH SCT020 BKN050
     FM280300 05008KT P6SM VCSH SCT020 BKN040=

USA.gov is the U.S. government's official web portal to all federal, state and local government web resources and services.